createdAt,value
2022-10-07T00:02:10.107Z,4.57
2022-10-07T00:04:37.486Z,4.83
2022-10-07T00:07:04.432Z,6.03
2022-10-07T00:09:31.259Z,5.50
2022-10-07T00:11:58.889Z,6.03
2022-10-07T00:14:26.008Z,6.13
2022-10-07T00:16:53.138Z,5.97
2022-10-07T00:19:20.019Z,6.63
2022-10-07T00:21:47.441Z,6.67
2022-10-07T00:24:16.217Z,6.20
2022-10-07T00:26:43.161Z,6.83
2022-10-07T00:29:10.250Z,6.90
2022-10-07T00:31:37.519Z,6.47
2022-10-07T00:34:04.711Z,6.37
2022-10-07T00:36:33.181Z,4.90
2022-10-07T00:39:01.850Z,5.30
2022-10-07T00:41:39.617Z,5.77
2022-10-07T00:44:31.459Z,5.23
2022-10-07T00:46:58.932Z,5.43
2022-10-07T00:49:27.554Z,5.43
2022-10-07T00:51:54.544Z,5.13
2022-10-07T00:54:21.550Z,5.20
2022-10-07T00:56:50.272Z,4.97
2022-10-07T00:59:19.123Z,5.70
2022-10-07T01:01:46.476Z,6.17
2022-10-07T01:04:15.088Z,6.97
2022-10-07T01:06:42.055Z,6.80
2022-10-07T01:09:09.748Z,6.73
2022-10-07T01:11:45.129Z,6.60
2022-10-07T01:14:35.000Z,6.43
2022-10-07T01:17:06.814Z,6.20
2022-10-07T01:20:13.176Z,6.50
2022-10-07T01:22:59.591Z,6.57
2022-10-07T01:25:38.438Z,9.60
2022-10-07T01:28:12.262Z,7.50
2022-10-07T01:30:42.539Z,7.83
2022-10-07T01:33:12.642Z,6.77
2022-10-07T01:35:41.238Z,7.27
2022-10-07T01:38:10.201Z,7.17
2022-10-07T01:40:42.542Z,8.07
2022-10-07T01:43:09.693Z,6.87
2022-10-07T01:45:39.228Z,6.17
2022-10-07T01:48:06.352Z,6.30
2022-10-07T01:50:34.311Z,7.20
2022-10-07T01:53:04.362Z,7.10
2022-10-07T01:55:31.209Z,6.50
2022-10-07T01:58:01.135Z,7.10
2022-10-07T02:00:29.462Z,6.07
2022-10-07T02:03:05.682Z,6.20
2022-10-07T02:05:42.955Z,7.47
2022-10-07T02:08:12.967Z,6.83
2022-10-07T02:10:54.469Z,6.50
2022-10-07T02:13:26.135Z,6.73
2022-10-07T02:16:01.760Z,7.20
2022-10-07T02:18:30.007Z,6.43
2022-10-07T02:20:57.129Z,7.03
2022-10-07T02:23:25.585Z,6.93
2022-10-07T02:25:54.104Z,5.23
2022-10-07T02:28:22.940Z,5.20
2022-10-07T02:30:54.092Z,5.03
2022-10-07T02:33:24.075Z,5.90
2022-10-07T02:35:55.883Z,5.70
2022-10-07T02:38:23.115Z,7.63
2022-10-07T02:40:50.357Z,9.10
2022-10-07T02:43:20.290Z,7.30
2022-10-07T02:45:55.375Z,8.63
2022-10-07T02:48:24.743Z,8.27
2022-10-07T02:50:54.124Z,9.80
2022-10-07T02:53:21.746Z,10.40
2022-10-07T02:55:50.610Z,9.23
2022-10-07T02:58:19.159Z,9.57
2022-10-07T03:00:47.696Z,8.37
2022-10-07T03:03:16.122Z,6.40
2022-10-07T03:05:56.297Z,6.20
2022-10-07T03:08:24.223Z,6.87
2022-10-07T03:10:51.656Z,6.17
2022-10-07T03:13:18.758Z,8.87
2022-10-07T03:15:51.772Z,8.27
2022-10-07T03:18:29.587Z,7.00
2022-10-07T03:21:22.851Z,6.63
2022-10-07T03:23:53.206Z,8.17
2022-10-07T03:26:22.464Z,8.43
2022-10-07T03:28:49.827Z,8.77
2022-10-07T03:31:17.465Z,6.53
2022-10-07T03:33:48.402Z,8.20
2022-10-07T03:36:15.195Z,6.57
2022-10-07T03:38:45.014Z,8.00
2022-10-07T03:41:12.968Z,8.87
2022-10-07T03:43:40.127Z,7.63
2022-10-07T03:46:08.822Z,7.77
2022-10-07T03:48:37.405Z,8.50
2022-10-07T03:51:04.429Z,7.80
2022-10-07T03:53:34.075Z,7.60
2022-10-07T03:56:01.981Z,8.03
2022-10-07T03:58:30.659Z,9.90
2022-10-07T04:01:08.256Z,12.10
2022-10-07T04:03:37.219Z,14.37
2022-10-07T04:06:04.504Z,13.13
2022-10-07T04:08:34.072Z,12.70
2022-10-07T04:11:02.951Z,9.47
2022-10-07T04:13:31.894Z,9.53
2022-10-07T04:15:59.214Z,9.47
2022-10-07T04:18:27.041Z,12.37
2022-10-07T04:20:54.161Z,12.23
2022-10-07T04:23:21.801Z,11.03
2022-10-07T04:25:48.780Z,11.10
2022-10-07T04:28:22.792Z,10.43
2022-10-07T04:30:54.140Z,10.07
2022-10-07T04:33:27.110Z,12.23
2022-10-07T04:35:55.901Z,13.10
2022-10-07T04:38:27.571Z,13.50
2022-10-07T04:40:56.776Z,15.80
2022-10-07T04:43:23.779Z,13.80
2022-10-07T04:46:10.989Z,45.87
2022-10-07T04:48:46.104Z,35.10
2022-10-07T04:51:16.321Z,26.27
2022-10-07T04:53:56.329Z,30.73
2022-10-07T04:56:28.554Z,35.67
2022-10-07T04:58:56.319Z,39.80
2022-10-07T05:01:24.040Z,28.63
2022-10-07T05:03:51.247Z,22.17
2022-10-07T05:06:18.671Z,15.97
2022-10-07T05:08:45.972Z,20.30
2022-10-07T05:11:14.163Z,17.77
2022-10-07T05:13:50.929Z,12.37
2022-10-07T05:16:17.875Z,11.00
2022-10-07T05:18:44.701Z,11.73
2022-10-07T05:21:13.713Z,10.97
2022-10-07T05:23:44.658Z,14.00
2022-10-07T05:26:16.056Z,12.27
2022-10-07T05:28:49.573Z,13.20
2022-10-07T05:31:22.191Z,16.87
2022-10-07T05:33:53.751Z,17.20
2022-10-07T05:36:24.513Z,16.27
2022-10-07T05:38:58.208Z,17.87
2022-10-07T05:41:31.500Z,19.70
2022-10-07T05:44:01.451Z,19.73
2022-10-07T05:46:28.425Z,18.10
2022-10-07T05:48:58.190Z,16.50
2022-10-07T05:51:30.619Z,15.97
2022-10-07T05:53:59.109Z,17.03
2022-10-07T05:56:32.683Z,15.50
2022-10-07T05:58:59.665Z,15.57
2022-10-07T06:01:29.308Z,15.60
2022-10-07T06:03:59.360Z,15.40
2022-10-07T06:06:32.161Z,16.80
2022-10-07T06:09:21.363Z,19.90
2022-10-07T06:12:07.476Z,21.50
2022-10-07T06:14:36.602Z,22.33
2022-10-07T06:17:05.147Z,22.00
2022-10-07T06:19:32.242Z,23.63
2022-10-07T06:22:01.692Z,24.50
2022-10-07T06:24:28.779Z,26.23
2022-10-07T06:26:56.162Z,23.83
2022-10-07T06:29:24.806Z,28.20
2022-10-07T06:31:51.679Z,28.60
2022-10-07T06:34:19.424Z,28.20
2022-10-07T06:36:47.264Z,29.23
2022-10-07T06:39:17.082Z,29.40
2022-10-07T06:41:45.951Z,31.17
2022-10-07T06:44:39.179Z,28.83
2022-10-07T06:47:11.920Z,25.00
2022-10-07T06:49:41.581Z,24.47
2022-10-07T06:52:08.559Z,18.13
2022-10-07T06:54:36.256Z,15.30
2022-10-07T06:57:15.411Z,12.17
2022-10-07T06:59:50.917Z,11.47
2022-10-07T07:02:18.092Z,9.37
2022-10-07T07:04:45.309Z,9.00
2022-10-07T07:07:12.219Z,11.37
2022-10-07T07:09:39.773Z,12.13
2022-10-07T07:12:08.176Z,7.57
2022-10-07T07:14:39.078Z,6.70
2022-10-07T07:17:11.331Z,6.67
2022-10-07T07:19:38.393Z,7.13
2022-10-07T07:22:07.753Z,6.77
2022-10-07T07:24:35.100Z,6.93
2022-10-07T07:27:03.451Z,6.83
2022-10-07T07:29:30.922Z,6.53
2022-10-07T07:32:00.226Z,6.00
2022-10-07T07:34:30.460Z,6.10
2022-10-07T07:36:57.666Z,5.13
2022-10-07T07:39:30.082Z,5.83
2022-10-07T07:42:12.132Z,4.97
2022-10-07T07:44:40.360Z,4.83
2022-10-07T07:47:10.541Z,4.17
2022-10-07T07:49:38.472Z,5.07
2022-10-07T07:52:08.717Z,4.63
2022-10-07T07:54:42.221Z,4.37
2022-10-07T07:57:09.729Z,5.63
2022-10-07T07:59:37.584Z,4.60
2022-10-07T08:02:06.235Z,5.17
2022-10-07T08:04:34.249Z,4.80
2022-10-07T08:07:01.509Z,4.80
2022-10-07T08:09:29.465Z,5.03
2022-10-07T08:11:57.820Z,5.80
2022-10-07T08:14:25.615Z,5.00
2022-10-07T08:16:55.782Z,5.47
2022-10-07T08:19:22.836Z,5.00
2022-10-07T08:21:49.844Z,3.50
2022-10-07T08:24:25.137Z,3.27
2022-10-07T08:26:53.815Z,3.60
2022-10-07T08:29:21.250Z,4.77
2022-10-07T08:31:49.517Z,3.40
2022-10-07T08:34:16.572Z,2.97
2022-10-07T08:36:47.457Z,3.17
2022-10-07T08:39:15.224Z,3.10
2022-10-07T08:41:42.057Z,3.30
2022-10-07T08:44:20.919Z,3.40
2022-10-07T08:46:57.008Z,3.20
2022-10-07T08:49:28.158Z,3.40
2022-10-07T08:51:58.616Z,3.40
2022-10-07T08:54:27.110Z,4.53
2022-10-07T08:56:58.242Z,3.90
2022-10-07T08:59:31.440Z,3.80
2022-10-07T09:02:03.122Z,3.97
2022-10-07T09:04:33.327Z,4.13
2022-10-07T09:07:02.290Z,3.80
2022-10-07T09:09:34.048Z,4.50
2022-10-07T09:12:02.313Z,4.13
2022-10-07T09:14:37.518Z,3.93
2022-10-07T09:17:11.012Z,3.73
2022-10-07T09:19:44.122Z,4.73
2022-10-07T09:22:19.656Z,4.17
2022-10-07T09:24:47.035Z,3.57
2022-10-07T09:27:16.144Z,3.40
2022-10-07T09:29:43.060Z,4.00
2022-10-07T09:32:12.232Z,4.23
2022-10-07T09:34:39.017Z,3.67
2022-10-07T09:37:08.615Z,3.73
2022-10-07T09:39:35.614Z,4.17
2022-10-07T09:42:06.865Z,4.47
2022-10-07T09:44:33.794Z,4.40
2022-10-07T09:47:12.431Z,4.63
2022-10-07T09:49:41.327Z,3.93
2022-10-07T09:52:16.761Z,4.57
2022-10-07T09:54:44.767Z,4.37
2022-10-07T09:57:26.748Z,4.50
2022-10-07T10:00:13.484Z,4.00
2022-10-07T10:02:41.545Z,4.63
2022-10-07T10:05:25.833Z,4.63
2022-10-07T10:07:54.033Z,4.40
2022-10-07T10:10:27.196Z,4.57
2022-10-07T10:12:56.445Z,4.80
2022-10-07T10:15:23.333Z,4.57
2022-10-07T10:17:50.295Z,4.17
2022-10-07T10:20:26.441Z,4.37
2022-10-07T10:22:53.662Z,4.90
2022-10-07T10:25:47.094Z,4.50
2022-10-07T10:28:20.137Z,4.93
2022-10-07T10:30:57.652Z,4.50
2022-10-07T10:33:27.399Z,5.23
2022-10-07T10:35:59.832Z,5.30
2022-10-07T10:38:33.408Z,5.73
2022-10-07T10:41:00.203Z,5.70
2022-10-07T10:43:39.222Z,6.10
2022-10-07T10:46:26.826Z,6.53
2022-10-07T10:49:12.268Z,5.90
2022-10-07T10:51:44.955Z,7.07
2022-10-07T10:54:14.959Z,7.17
2022-10-07T10:56:44.736Z,7.27
2022-10-07T10:59:14.667Z,7.77
2022-10-07T11:01:42.653Z,8.40
2022-10-07T11:04:18.540Z,8.37
2022-10-07T11:06:48.799Z,9.30
2022-10-07T11:09:38.880Z,8.70
2022-10-07T11:12:10.860Z,8.53
2022-10-07T11:14:46.506Z,7.60
2022-10-07T11:17:13.832Z,8.73
2022-10-07T11:19:43.539Z,8.43
2022-10-07T11:22:18.007Z,7.90
2022-10-07T11:24:55.093Z,8.17
2022-10-07T11:27:25.425Z,6.67
2022-10-07T11:29:59.126Z,6.93
2022-10-07T11:32:44.601Z,6.30
2022-10-07T11:35:18.009Z,6.80
2022-10-07T11:37:52.543Z,6.60
2022-10-07T11:40:19.853Z,6.30
2022-10-07T11:42:50.132Z,5.97
2022-10-07T11:45:20.225Z,5.50
2022-10-07T11:47:50.625Z,5.57
2022-10-07T11:50:20.447Z,5.37
2022-10-07T11:52:49.656Z,5.03
2022-10-07T11:55:29.047Z,5.47
2022-10-07T11:57:57.527Z,4.90
2022-10-07T12:00:35.579Z,5.40
2022-10-07T12:03:31.614Z,4.73
2022-10-07T12:06:07.278Z,5.03
2022-10-07T12:08:38.564Z,5.40
2022-10-07T12:11:11.239Z,4.63
2022-10-07T12:13:46.206Z,4.70
2022-10-07T12:16:28.550Z,4.97
2022-10-07T12:19:07.708Z,5.13
2022-10-07T12:21:53.383Z,4.67
2022-10-07T12:24:20.333Z,5.77
2022-10-07T12:26:48.666Z,4.50
2022-10-07T12:29:35.732Z,5.37
2022-10-07T12:32:02.734Z,4.77
2022-10-07T12:34:40.326Z,5.13
2022-10-07T12:37:26.004Z,5.07
2022-10-07T12:39:52.939Z,5.30
2022-10-07T12:42:19.829Z,5.67
2022-10-07T12:44:52.854Z,5.23
2022-10-07T12:47:22.741Z,5.80
2022-10-07T12:49:50.978Z,4.93
2022-10-07T12:52:19.102Z,5.67
2022-10-07T12:54:55.947Z,5.13
2022-10-07T12:57:24.077Z,6.80
2022-10-07T13:00:08.217Z,5.97
2022-10-07T13:02:55.363Z,5.67
2022-10-07T13:05:25.295Z,6.40
2022-10-07T13:08:08.915Z,5.43
2022-10-07T13:10:48.110Z,5.10
2022-10-07T13:13:25.229Z,6.00
2022-10-07T13:16:18.602Z,6.90
2022-10-07T13:18:48.970Z,7.20
2022-10-07T13:21:35.687Z,5.33
2022-10-07T13:24:03.090Z,5.43
2022-10-07T13:26:29.955Z,5.57
2022-10-07T13:28:58.300Z,5.90
2022-10-07T13:31:29.477Z,6.67
2022-10-07T13:33:57.449Z,5.90
2022-10-07T13:36:25.340Z,5.60
2022-10-07T13:38:54.123Z,5.43
2022-10-07T13:41:21.151Z,6.07
2022-10-07T13:43:52.700Z,6.43
2022-10-07T13:46:19.932Z,6.10
2022-10-07T13:48:46.893Z,6.47
2022-10-07T13:51:16.977Z,6.23
2022-10-07T13:53:43.821Z,6.30
2022-10-07T13:56:29.526Z,6.13
2022-10-07T13:58:57.501Z,5.83
2022-10-07T14:01:27.556Z,6.50
2022-10-07T14:04:25.406Z,6.20
2022-10-07T14:06:53.733Z,6.80
2022-10-07T14:09:32.640Z,6.50
2022-10-07T14:12:08.167Z,6.40
2022-10-07T14:14:37.534Z,6.70
2022-10-07T14:17:09.380Z,7.03
2022-10-07T14:19:36.583Z,6.20
2022-10-07T14:22:04.661Z,6.03
2022-10-07T14:24:31.778Z,5.90
2022-10-07T14:26:58.698Z,6.23
2022-10-07T14:29:31.594Z,7.00
2022-10-07T14:32:25.937Z,6.67
2022-10-07T14:35:11.137Z,6.13
2022-10-07T14:37:38.115Z,6.70
2022-10-07T14:40:16.095Z,6.83
2022-10-07T14:42:43.198Z,6.37
2022-10-07T14:45:14.287Z,6.33
2022-10-07T14:47:41.589Z,4.63
2022-10-07T14:50:08.699Z,5.30
2022-10-07T14:52:43.582Z,6.10
2022-10-07T14:55:14.698Z,6.37
2022-10-07T14:57:41.533Z,5.70
2022-10-07T15:00:20.716Z,5.77
2022-10-07T15:02:48.623Z,4.77
2022-10-07T15:05:15.742Z,6.27
2022-10-07T15:07:42.807Z,5.63
2022-10-07T15:10:17.144Z,6.30
2022-10-07T15:12:44.692Z,6.20
2022-10-07T15:15:12.896Z,5.87
2022-10-07T15:17:40.187Z,5.60
2022-10-07T15:20:07.926Z,6.03
2022-10-07T15:22:34.806Z,5.50
2022-10-07T15:25:03.479Z,5.60
2022-10-07T15:27:30.543Z,5.17
2022-10-07T15:29:57.447Z,6.07
2022-10-07T15:32:24.516Z,6.43
2022-10-07T15:34:55.329Z,6.53
2022-10-07T15:37:22.265Z,6.40
2022-10-07T15:39:49.060Z,7.33
2022-10-07T15:42:16.116Z,7.47
2022-10-07T15:44:44.533Z,7.20
2022-10-07T15:47:13.621Z,7.47
2022-10-07T15:49:40.933Z,7.23
2022-10-07T15:52:09.213Z,6.60
2022-10-07T15:54:37.021Z,6.77
2022-10-07T15:57:04.290Z,6.80
2022-10-07T15:59:31.123Z,6.73
2022-10-07T16:01:58.313Z,6.87
2022-10-07T16:04:25.371Z,6.37
2022-10-07T16:06:52.283Z,7.87
2022-10-07T16:09:20.026Z,6.80
2022-10-07T16:11:47.825Z,7.63
2022-10-07T16:14:14.924Z,7.80
2022-10-07T16:16:42.132Z,7.40
2022-10-07T16:19:09.432Z,6.67
2022-10-07T16:21:38.177Z,7.57
2022-10-07T16:24:06.688Z,7.87
2022-10-07T16:26:35.909Z,7.03
2022-10-07T16:29:23.064Z,7.63
2022-10-07T16:31:54.534Z,8.57
2022-10-07T16:34:24.248Z,8.43
2022-10-07T16:36:51.048Z,9.27
2022-10-07T16:39:19.286Z,10.53
2022-10-07T16:41:46.921Z,10.07
2022-10-07T16:44:14.819Z,7.90
2022-10-07T16:46:42.081Z,8.07
2022-10-07T16:49:11.724Z,8.60
2022-10-07T16:51:38.887Z,8.33
2022-10-07T16:54:13.121Z,8.10
2022-10-07T16:56:41.356Z,9.03
2022-10-07T16:59:10.513Z,7.83
2022-10-07T17:01:39.364Z,8.23
2022-10-07T17:04:07.143Z,8.70
2022-10-07T17:06:34.573Z,9.20
2022-10-07T17:09:03.280Z,8.00
2022-10-07T17:11:34.030Z,12.17
2022-10-07T17:14:02.500Z,9.60
2022-10-07T17:16:30.364Z,8.43
2022-10-07T17:18:57.506Z,8.03
2022-10-07T17:21:24.334Z,8.20
2022-10-07T17:23:51.185Z,7.87
2022-10-07T17:26:20.051Z,8.53
2022-10-07T17:28:49.994Z,8.30
2022-10-07T17:31:17.040Z,8.73
2022-10-07T17:33:44.381Z,9.17
2022-10-07T17:36:12.155Z,10.97
2022-10-07T17:38:45.152Z,12.07
2022-10-07T17:41:12.714Z,10.93
2022-10-07T17:43:40.419Z,10.53
2022-10-07T17:46:12.715Z,11.27
2022-10-07T17:48:50.453Z,12.13
2022-10-07T17:51:18.732Z,10.23
2022-10-07T17:53:45.895Z,10.67
2022-10-07T17:56:14.854Z,10.53
2022-10-07T17:58:44.228Z,10.33
2022-10-07T18:01:13.850Z,10.43
2022-10-07T18:03:41.585Z,10.23
2022-10-07T18:06:09.207Z,11.30
2022-10-07T18:08:36.667Z,11.47
2022-10-07T18:11:04.089Z,12.03
2022-10-07T18:13:50.328Z,12.27
2022-10-07T18:16:17.674Z,10.00
2022-10-07T18:18:45.243Z,10.97
2022-10-07T18:21:12.382Z,11.23
2022-10-07T18:23:41.014Z,11.13
2022-10-07T18:26:10.418Z,11.07
2022-10-07T18:28:38.488Z,10.90
2022-10-07T18:31:11.479Z,9.03
2022-10-07T18:33:39.009Z,10.63
2022-10-07T18:36:07.210Z,10.53
2022-10-07T18:38:35.157Z,10.87
2022-10-07T18:41:03.017Z,10.13
2022-10-07T18:43:30.727Z,10.77
2022-10-07T18:46:08.009Z,10.47
2022-10-07T18:48:35.664Z,10.00
2022-10-07T18:51:03.071Z,10.97
2022-10-07T18:53:34.467Z,10.57
2022-10-07T18:56:05.117Z,10.90
2022-10-07T18:58:39.327Z,12.50
2022-10-07T19:01:10.575Z,11.23
2022-10-07T19:03:37.579Z,10.97
2022-10-07T19:06:08.625Z,11.30
2022-10-07T19:08:35.709Z,12.10
2022-10-07T19:11:03.510Z,12.17
2022-10-07T19:13:48.321Z,12.37
2022-10-07T19:16:16.159Z,12.27
2022-10-07T19:18:43.898Z,12.80
2022-10-07T19:21:13.842Z,12.80
2022-10-07T19:23:40.883Z,13.30
2022-10-07T19:26:08.438Z,13.30
2022-10-07T19:28:36.711Z,13.80
2022-10-07T19:31:16.914Z,14.33
2022-10-07T19:33:45.009Z,13.90
2022-10-07T19:36:13.052Z,14.60
2022-10-07T19:38:43.325Z,13.73
2022-10-07T19:41:12.116Z,13.87
2022-10-07T19:43:39.780Z,12.80
2022-10-07T19:46:06.779Z,12.70
2022-10-07T19:48:34.233Z,13.80
2022-10-07T19:51:02.181Z,12.63
2022-10-07T19:53:34.031Z,13.67
2022-10-07T19:56:02.453Z,13.33
2022-10-07T19:58:31.584Z,12.87
2022-10-07T20:01:05.845Z,13.47
2022-10-07T20:03:32.811Z,13.03
2022-10-07T20:06:00.440Z,14.40
2022-10-07T20:08:28.189Z,15.07
2022-10-07T20:10:55.022Z,15.43
2022-10-07T20:13:21.906Z,13.70
2022-10-07T20:15:50.262Z,14.17
2022-10-07T20:18:17.372Z,13.83
2022-10-07T20:20:44.371Z,15.00
2022-10-07T20:23:11.121Z,14.77
2022-10-07T20:25:38.395Z,14.10
2022-10-07T20:28:05.834Z,13.67
2022-10-07T20:30:34.363Z,13.43
2022-10-07T20:33:01.214Z,13.63
2022-10-07T20:35:33.067Z,13.67
2022-10-07T20:38:00.857Z,14.10
2022-10-07T20:40:45.923Z,14.47
2022-10-07T20:43:13.091Z,19.40
2022-10-07T20:45:56.509Z,22.83
2022-10-07T20:48:23.628Z,22.33
2022-10-07T20:50:51.097Z,21.17
2022-10-07T20:53:17.980Z,19.73
2022-10-07T20:55:45.483Z,18.67
2022-10-07T20:58:13.843Z,16.77
2022-10-07T21:00:41.119Z,17.27
2022-10-07T21:03:08.086Z,16.23
2022-10-07T21:05:36.068Z,16.67
2022-10-07T21:08:03.069Z,16.17
2022-10-07T21:10:29.831Z,16.13
2022-10-07T21:12:56.710Z,17.33
2022-10-07T21:15:23.568Z,17.20
2022-10-07T21:17:50.411Z,16.47
2022-10-07T21:20:17.230Z,17.83
2022-10-07T21:22:44.419Z,18.07
2022-10-07T21:25:12.098Z,18.50
2022-10-07T21:27:38.972Z,17.30
2022-10-07T21:30:06.043Z,19.63
2022-10-07T21:32:32.937Z,17.80
2022-10-07T21:34:59.924Z,19.07
2022-10-07T21:37:26.852Z,19.67
2022-10-07T21:39:53.663Z,19.57
2022-10-07T21:42:21.081Z,19.53
2022-10-07T21:44:47.897Z,19.27
2022-10-07T21:47:14.860Z,19.53
2022-10-07T21:49:41.630Z,20.17
2022-10-07T21:52:08.577Z,19.37
2022-10-07T21:54:36.704Z,20.67
2022-10-07T21:57:04.696Z,20.43
2022-10-07T21:59:33.789Z,20.40
2022-10-07T22:02:01.166Z,21.10
2022-10-07T22:04:30.901Z,19.67
2022-10-07T22:07:16.690Z,20.13
2022-10-07T22:09:43.537Z,19.50
2022-10-07T22:12:10.291Z,18.40
2022-10-07T22:14:37.575Z,17.20
2022-10-07T22:17:04.524Z,16.83
2022-10-07T22:19:31.354Z,17.63
2022-10-07T22:21:58.253Z,17.70
2022-10-07T22:24:25.009Z,18.43
2022-10-07T22:26:52.369Z,18.33
2022-10-07T22:29:19.413Z,16.93
2022-10-07T22:31:47.238Z,16.97
2022-10-07T22:34:34.314Z,17.70
2022-10-07T22:37:01.214Z,15.53
2022-10-07T22:39:31.042Z,15.73
2022-10-07T22:41:58.740Z,15.10
2022-10-07T22:44:28.721Z,13.70
2022-10-07T22:46:56.227Z,13.80
2022-10-07T22:49:28.637Z,15.63
2022-10-07T22:51:56.588Z,15.30
2022-10-07T22:54:23.418Z,16.10
2022-10-07T22:56:50.222Z,14.93
2022-10-07T22:59:17.073Z,17.53
2022-10-07T23:01:43.851Z,16.50
2022-10-07T23:04:10.830Z,16.97
2022-10-07T23:06:37.594Z,17.37
2022-10-07T23:09:04.774Z,15.70
2022-10-07T23:11:31.738Z,15.10
2022-10-07T23:13:58.566Z,16.53
2022-10-07T23:16:27.329Z,14.73
2022-10-07T23:18:54.262Z,16.63
2022-10-07T23:21:25.677Z,17.07
2022-10-07T23:23:53.985Z,15.10
2022-10-07T23:26:26.363Z,15.17
2022-10-07T23:28:54.044Z,15.13
2022-10-07T23:31:21.738Z,14.13
2022-10-07T23:33:54.221Z,15.77
2022-10-07T23:36:21.597Z,14.63
2022-10-07T23:38:49.246Z,14.87
2022-10-07T23:41:23.414Z,14.60
2022-10-07T23:43:51.118Z,15.23
2022-10-07T23:46:18.628Z,14.87
2022-10-07T23:48:45.673Z,15.20
2022-10-07T23:51:13.398Z,14.67
2022-10-07T23:53:40.440Z,14.47
2022-10-07T23:56:07.276Z,14.93
2022-10-07T23:58:34.490Z,14.00
